Time;durP1;ratioP1;P1;durP2;ratioP2;P2;SDS_P1;SDS_P2;PMS_P1;PMS_P2;Temp;Humidity;BMP_temperature;BMP_pressure;BME280_temperature;BME280_humidity;BME280_pressure;Samples;Min_cycle;Max_cycle;Signal;HPM_P1;HPM_P2
2022/02/12 00:00:38;;;;;;;0.98;0.70;;;23.00;59.60;;;;;;5016226;28;20025;-69
2022/02/12 00:03:04;;;;;;;1.13;0.95;;;23.00;59.60;;;;;;5033281;28;20022;-69
2022/02/12 00:05:30;;;;;;;1.73;1.20;;;23.00;59.60;;;;;;5033630;28;20037;-69
2022/02/12 00:07:56;;;;;;;0.73;0.73;;;23.00;59.60;;;;;;5015660;28;20431;-69
2022/02/12 00:10:23;;;;;;;0.73;0.68;;;23.00;59.60;;;;;;5015594;28;20492;-69
2022/02/12 00:12:49;;;;;;;0.70;0.70;;;23.00;59.60;;;;;;5033151;28;20071;-69
2022/02/12 00:15:15;;;;;;;1.23;0.80;;;23.00;60.60;;;;;;5032619;28;20049;-69
2022/02/12 00:17:42;;;;;;;0.80;0.80;;;23.00;59.60;;;;;;5033157;28;20024;-69
2022/02/12 00:20:08;;;;;;;1.15;0.77;;;23.00;59.60;;;;;;5015222;28;20026;-69
2022/02/12 00:22:34;;;;;;;1.20;0.75;;;23.00;60.50;;;;;;5015603;28;20029;-69
2022/02/12 00:24:59;;;;;;;1.00;0.90;;;23.00;59.60;;;;;;5032781;28;20033;-69
2022/02/12 00:27:25;;;;;;;0.68;0.68;;;23.00;59.50;;;;;;5032941;28;20029;-69
2022/02/12 00:29:51;;;;;;;0.80;0.70;;;23.00;59.60;;;;;;5032713;28;20534;-69
2022/02/12 00:32:16;;;;;;;0.90;0.90;;;23.00;59.50;;;;;;5032424;28;20518;-69
2022/02/12 00:34:42;;;;;;;0.90;0.80;;;23.00;59.50;;;;;;5032922;28;20049;-70
2022/02/12 00:37:07;;;;;;;0.80;0.80;;;23.00;59.50;;;;;;5032614;28;20092;-70
2022/02/12 00:39:33;;;;;;;1.65;1.10;;;23.00;59.60;;;;;;5032746;28;20505;-70
2022/02/12 00:41:59;;;;;;;0.80;0.80;;;23.00;59.50;;;;;;5015080;28;20032;-70
2022/02/12 00:44:24;;;;;;;0.70;0.70;;;23.00;59.50;;;;;;5014726;28;20391;-70
2022/02/12 00:46:51;;;;;;;0.90;0.90;;;23.00;59.50;;;;;;5032667;28;20025;-70
2022/02/12 00:49:16;;;;;;;2.15;0.73;;;23.00;59.50;;;;;;5032524;28;20026;-69
2022/02/12 00:51:42;;;;;;;0.73;0.73;;;23.00;59.50;;;;;;5014765;28;20102;-70
2022/02/12 00:54:08;;;;;;;0.90;0.77;;;23.10;59.60;;;;;;5032357;28;20028;-69
2022/02/12 00:56:33;;;;;;;1.80;0.52;;;23.00;59.60;;;;;;5015015;28;20017;-70
2022/02/12 00:58:59;;;;;;;1.38;1.02;;;23.00;59.60;;;;;;5032024;28;20404;-69
2022/02/12 01:01:25;;;;;;;1.00;0.60;;;23.00;59.50;;;;;;5032310;28;20018;-70
2022/02/12 01:03:50;;;;;;;0.88;0.70;;;23.10;59.60;;;;;;5032399;28;20075;-70
2022/02/12 01:06:16;;;;;;;0.80;0.60;;;23.10;59.60;;;;;;5032382;28;20013;-69
2022/02/12 01:08:41;;;;;;;1.02;0.85;;;23.10;59.60;;;;;;5032392;28;20072;-70
2022/02/12 01:11:07;;;;;;;1.20;0.80;;;23.10;59.60;;;;;;5014423;28;20460;-70
2022/02/12 01:13:33;;;;;;;0.80;0.80;;;23.10;59.60;;;;;;5031843;28;20028;-70
2022/02/12 01:15:59;;;;;;;1.67;0.70;;;23.10;59.60;;;;;;5032051;28;20052;-70
2022/02/12 01:18:24;;;;;;;0.80;0.80;;;23.10;59.60;;;;;;5014614;28;20034;-70
2022/02/12 01:20:50;;;;;;;0.77;0.77;;;23.10;59.60;;;;;;5032120;28;20053;-70
2022/02/12 01:23:15;;;;;;;0.90;0.65;;;23.10;59.60;;;;;;5032288;28;20120;-70
2022/02/12 01:25:41;;;;;;;0.70;0.70;;;23.10;59.60;;;;;;5014682;28;20037;-69
2022/02/12 01:28:07;;;;;;;0.80;0.80;;;23.10;59.50;;;;;;5014061;28;20029;-70
2022/02/12 01:30:32;;;;;;;0.70;0.70;;;23.10;59.50;;;;;;5032262;28;20025;-69
2022/02/12 01:32:58;;;;;;;0.80;0.70;;;23.10;59.50;;;;;;5032053;28;20022;-69
2022/02/12 01:35:24;;;;;;;0.70;0.70;;;23.10;59.50;;;;;;5014389;28;20044;-69
2022/02/12 01:37:50;;;;;;;0.80;0.73;;;23.10;59.50;;;;;;5014694;28;20029;-69
2022/02/12 01:40:16;;;;;;;0.85;0.73;;;23.10;59.50;;;;;;5031856;28;20033;-69
2022/02/12 01:42:41;;;;;;;0.80;0.80;;;23.10;59.50;;;;;;5031761;28;20021;-69
2022/02/12 01:45:07;;;;;;;0.98;0.60;;;23.10;59.50;;;;;;5034847;28;20101;-69
2022/02/12 01:47:33;;;;;;;0.60;0.60;;;23.10;59.50;;;;;;5035826;28;20502;-69
2022/02/12 01:49:59;;;;;;;0.77;0.60;;;23.10;59.50;;;;;;5018283;28;20029;-69
2022/02/12 01:52:24;;;;;;;0.77;0.77;;;23.10;59.50;;;;;;5035626;28;20021;-70
2022/02/12 01:54:50;;;;;;;0.70;0.70;;;23.10;59.50;;;;;;5035827;28;20044;-70
2022/02/12 01:57:15;;;;;;;0.65;0.60;;;23.10;59.50;;;;;;5017858;28;20475;-70
2022/02/12 01:59:41;;;;;;;0.73;0.70;;;23.10;59.50;;;;;;5035611;28;20029;-70
2022/02/12 02:02:07;;;;;;;0.77;0.68;;;23.10;59.50;;;;;;5018050;28;20030;-70
2022/02/12 02:04:33;;;;;;;0.85;0.85;;;23.10;60.00;;;;;;5018038;28;20092;-70
2022/02/12 02:06:59;;;;;;;0.70;0.70;;;23.10;59.50;;;;;;5018072;28;20484;-70
2022/02/12 02:09:26;;;;;;;0.60;0.60;;;23.10;59.50;;;;;;5035466;28;20128;-69
2022/02/12 02:11:52;;;;;;;0.75;0.70;;;23.10;59.50;;;;;;5017806;28;20061;-69
2022/02/12 02:14:18;;;;;;;0.98;0.77;;;23.10;59.50;;;;;;5035123;28;20049;-70
2022/02/12 02:16:44;;;;;;;0.70;0.70;;;23.10;59.50;;;;;;5035171;28;20057;-69
2022/02/12 02:19:10;;;;;;;2.38;0.70;;;23.10;59.50;;;;;;5017674;28;20033;-70
2022/02/12 02:21:38;;;;;;;1.10;1.00;;;23.10;59.50;;;;;;5017697;28;20075;-70
2022/02/12 02:24:05;;;;;;;0.50;0.50;;;23.20;59.50;;;;;;5034715;28;20438;-70
2022/02/12 02:26:32;;;;;;;0.55;0.55;;;23.20;59.50;;;;;;5017912;28;20108;-69
2022/02/12 02:28:57;;;;;;;0.90;0.90;;;23.20;59.50;;;;;;5017541;28;20108;-69
2022/02/12 02:31:24;;;;;;;0.80;0.70;;;23.20;59.50;;;;;;5017322;28;20175;-70
2022/02/12 02:33:49;;;;;;;2.03;0.60;;;23.20;59.50;;;;;;5035034;28;20048;-70
2022/02/12 02:36:16;;;;;;;0.70;0.70;;;23.20;59.50;;;;;;5034922;28;20096;-69
2022/02/12 02:38:42;;;;;;;0.60;0.60;;;23.20;59.50;;;;;;5034734;28;20047;-69
2022/02/12 02:41:08;;;;;;;0.93;0.82;;;23.20;59.40;;;;;;5034821;28;20071;-69
2022/02/12 02:43:33;;;;;;;0.98;0.52;;;23.20;59.40;;;;;;5035012;28;20038;-69
2022/02/12 02:45:59;;;;;;;0.70;0.70;;;23.20;59.50;;;;;;5035075;28;20022;-69
2022/02/12 02:48:25;;;;;;;0.60;0.60;;;23.20;59.40;;;;;;5016908;28;20040;-69
2022/02/12 02:56:18;;;;;;;1.27;0.55;;;23.20;59.50;;;;;;5034682;28;20037;-70
2022/02/12 02:58:46;;;;;;;0.70;0.70;;;23.20;59.50;;;;;;5034641;28;20026;-70
2022/02/12 03:01:12;;;;;;;1.75;0.90;;;23.20;59.40;;;;;;5017132;28;20518;-70
2022/02/12 03:03:38;;;;;;;0.70;0.70;;;23.20;59.40;;;;;;5034966;28;20021;-70
2022/02/12 03:06:04;;;;;;;0.60;0.60;;;23.20;59.50;;;;;;5016919;28;20030;-70
2022/02/12 03:08:30;;;;;;;0.65;0.65;;;23.20;59.40;;;;;;5016672;28;20040;-70
2022/02/12 03:10:56;;;;;;;0.70;0.47;;;23.20;59.40;;;;;;5030885;28;20060;-70
2022/02/12 03:13:22;;;;;;;0.95;0.63;;;23.20;59.40;;;;;;4997058;28;20073;-70
2022/02/12 03:15:47;;;;;;;0.73;0.73;;;23.20;59.40;;;;;;5014414;28;20042;-70
2022/02/12 03:18:13;;;;;;;0.50;0.50;;;23.20;59.40;;;;;;4996892;28;20073;-70
2022/02/12 03:20:39;;;;;;;1.02;0.70;;;23.20;59.40;;;;;;5014624;28;20022;-70
2022/02/12 03:23:04;;;;;;;1.75;0.65;;;23.20;59.40;;;;;;5013968;28;20034;-70
2022/02/12 03:25:30;;;;;;;1.30;0.70;;;23.20;59.40;;;;;;4996889;28;20026;-70
2022/02/12 03:27:57;;;;;;;0.70;0.70;;;23.20;59.50;;;;;;5014480;28;20595;-70
2022/02/12 03:30:27;;;;;;;1.30;0.77;;;23.20;59.40;;;;;;4996599;28;20026;-70
2022/02/12 03:32:52;;;;;;;0.50;0.50;;;23.20;59.40;;;;;;5014294;28;20033;-70
2022/02/12 03:35:18;;;;;;;0.80;0.80;;;23.20;59.40;;;;;;4996640;28;20392;-70
2022/02/12 03:37:44;;;;;;;1.52;0.70;;;23.20;59.40;;;;;;5013889;28;20030;-70
2022/02/12 03:40:12;;;;;;;0.70;0.70;;;23.20;59.40;;;;;;4996584;28;20026;-70
2022/02/12 03:42:38;;;;;;;0.90;0.80;;;23.20;59.40;;;;;;4996835;28;20048;-70
2022/02/12 03:45:04;;;;;;;0.85;0.70;;;23.20;59.40;;;;;;4996647;28;20022;-70
2022/02/12 03:47:30;;;;;;;0.95;0.70;;;23.20;59.40;;;;;;4996284;28;20042;-70
2022/02/12 03:49:55;;;;;;;0.60;0.60;;;23.20;59.40;;;;;;5013826;28;20036;-70
2022/02/12 03:52:21;;;;;;;0.70;0.70;;;23.20;59.40;;;;;;5020335;28;20026;-70
2022/02/12 03:54:46;;;;;;;0.57;0.57;;;23.10;59.30;;;;;;5033627;28;20021;-70
2022/02/12 03:57:12;;;;;;;0.57;0.57;;;23.20;59.40;;;;;;5033563;28;20028;-70
2022/02/12 03:59:38;;;;;;;0.70;0.70;;;23.20;59.40;;;;;;5033553;28;20120;-70
2022/02/12 04:02:04;;;;;;;0.85;0.68;;;23.20;59.40;;;;;;5033252;28;20498;-70
2022/02/12 04:04:29;;;;;;;0.73;0.57;;;23.20;59.40;;;;;;5033321;28;20471;-70
2022/02/12 04:06:55;;;;;;;1.45;0.65;;;23.20;59.40;;;;;;5032431;28;20029;-70
2022/02/12 04:09:21;;;;;;;0.50;0.50;;;23.20;59.40;;;;;;5015634;28;20087;-70
2022/02/12 04:11:46;;;;;;;0.75;0.50;;;23.20;59.40;;;;;;5033466;28;20021;-70
2022/02/12 04:14:12;;;;;;;0.68;0.60;;;23.20;59.40;;;;;;5032864;28;20021;-70
2022/02/12 04:16:37;;;;;;;0.60;0.60;;;23.20;59.40;;;;;;5032429;28;20519;-70
2022/02/12 04:19:03;;;;;;;0.80;0.75;;;23.20;59.40;;;;;;5032300;28;20017;-70
2022/02/12 04:21:29;;;;;;;1.25;0.60;;;23.20;59.30;;;;;;5031889;28;20036;-70
2022/02/12 04:23:54;;;;;;;0.60;0.60;;;23.20;59.40;;;;;;5032264;28;20018;-70
2022/02/12 04:26:20;;;;;;;0.60;0.60;;;23.20;59.40;;;;;;5032100;28;20037;-70
2022/02/12 04:28:45;;;;;;;0.50;0.50;;;23.20;59.40;;;;;;5031965;28;20014;-70
2022/02/12 04:31:12;;;;;;;0.73;0.65;;;23.10;59.30;;;;;;5032134;28;20403;-70
2022/02/12 04:33:37;;;;;;;1.60;0.75;;;23.20;59.40;;;;;;5032140;28;20013;-70
2022/02/12 04:36:03;;;;;;;0.47;0.45;;;23.20;59.40;;;;;;5014140;28;20051;-70
2022/02/12 04:38:29;;;;;;;2.40;0.70;;;23.20;59.40;;;;;;5031949;28;20044;-70
2022/02/12 04:40:54;;;;;;;1.20;0.50;;;23.20;59.40;;;;;;5031858;28;20026;-70
2022/02/12 04:43:20;;;;;;;0.68;0.68;;;23.10;59.30;;;;;;5014291;28;20040;-70
2022/02/12 04:45:46;;;;;;;0.75;0.63;;;23.20;59.40;;;;;;5032025;28;20040;-70
2022/02/12 04:48:11;;;;;;;1.13;0.70;;;23.20;59.40;;;;;;5031766;28;20506;-70
2022/02/12 04:50:37;;;;;;;0.65;0.50;;;23.20;59.40;;;;;;5031221;28;20033;-69
2022/02/12 04:53:03;;;;;;;0.50;0.50;;;23.10;59.30;;;;;;5032268;28;20025;-70
2022/02/12 04:55:28;;;;;;;0.80;0.70;;;23.20;59.40;;;;;;5032092;28;20064;-70
2022/02/12 04:57:54;;;;;;;1.35;0.60;;;23.10;59.10;;;;;;5032446;28;20018;-70
2022/02/12 05:00:20;;;;;;;0.60;0.60;;;23.10;59.20;;;;;;5031609;28;20402;-70
2022/02/12 05:02:46;;;;;;;0.73;0.60;;;23.10;59.20;;;;;;5013736;28;20021;-70
2022/02/12 05:05:12;;;;;;;1.52;0.68;;;23.10;59.30;;;;;;5031015;28;20022;-70
2022/02/12 05:07:40;;;;;;;0.80;0.80;;;23.10;59.20;;;;;;5013697;28;20388;-70
2022/02/12 05:10:06;;;;;;;1.00;0.75;;;23.10;59.20;;;;;;5031309;28;20029;-70
2022/02/12 05:12:32;;;;;;;1.55;0.80;;;23.00;59.20;;;;;;5030745;28;20480;-70
2022/02/12 05:14:57;;;;;;;3.70;0.70;;;23.00;59.20;;;;;;4984240;28;1347031;-70
2022/02/12 05:17:23;;;;;;;0.95;0.70;;;23.00;59.10;;;;;;5032029;28;20068;-70
2022/02/12 05:19:49;;;;;;;1.67;0.70;;;23.00;59.20;;;;;;5030750;28;20399;-70
2022/02/12 05:22:14;;;;;;;1.95;0.60;;;23.00;59.20;;;;;;5032436;28;20481;-70
2022/02/12 05:24:42;;;;;;;1.33;0.65;;;23.00;59.10;;;;;;5032035;28;20036;-70
2022/02/12 05:27:09;;;;;;;0.85;0.75;;;22.90;59.10;;;;;;5031980;28;20033;-70
2022/02/12 05:29:35;;;;;;;0.82;0.70;;;22.90;59.10;;;;;;5031478;28;20018;-70
2022/02/12 05:32:00;;;;;;;1.10;0.60;;;22.90;59.10;;;;;;5031912;28;20018;-70
2022/02/12 05:34:26;;;;;;;1.52;0.80;;;22.80;59.00;;;;;;5031619;28;20053;-70
2022/02/12 05:36:52;;;;;;;0.77;0.77;;;22.80;59.00;;;;;;5031875;28;20033;-70
2022/02/12 05:39:17;;;;;;;1.60;0.70;;;22.80;59.10;;;;;;5031767;28;20028;-70
2022/02/12 05:41:43;;;;;;;0.70;0.68;;;22.70;59.10;;;;;;5015454;28;20121;-70
2022/02/12 05:44:09;;;;;;;1.20;0.82;;;22.70;59.10;;;;;;5031921;28;20447;-70
2022/02/12 05:46:34;;;;;;;1.02;0.95;;;22.70;59.10;;;;;;5031791;28;20037;-70
2022/02/12 05:49:00;;;;;;;1.38;0.70;;;22.60;59.10;;;;;;5013756;28;20121;-70
2022/02/12 05:51:30;;;;;;;0.60;0.60;;;22.60;59.10;;;;;;5031409;28;20029;-70
2022/02/12 05:54:00;;;;;;;1.70;0.80;;;22.50;59.10;;;;;;5017024;28;20534;-70
2022/02/12 05:56:26;;;;;;;0.70;0.70;;;22.50;59.20;;;;;;5031501;28;20495;-70
2022/02/12 05:58:51;;;;;;;1.23;0.70;;;22.50;59.10;;;;;;5014010;28;20025;-70
2022/02/12 06:01:17;;;;;;;1.42;0.70;;;22.40;59.10;;;;;;5031787;28;20033;-70
2022/02/12 06:03:43;;;;;;;0.82;0.73;;;22.40;59.20;;;;;;5031020;28;20063;-70
2022/02/12 06:06:09;;;;;;;0.98;0.70;;;22.30;59.10;;;;;;5031528;28;20033;-70
2022/02/12 06:08:34;;;;;;;1.17;0.95;;;22.30;59.20;;;;;;5031544;28;20104;-70
2022/02/12 06:11:01;;;;;;;1.38;0.60;;;22.30;59.10;;;;;;5031473;28;20032;-70
2022/02/12 06:13:27;;;;;;;1.00;0.80;;;22.30;59.20;;;;;;4997969;28;20049;-70
2022/02/12 06:15:53;;;;;;;1.05;0.50;;;22.30;59.20;;;;;;5031114;28;20146;-70
2022/02/12 06:18:19;;;;;;;1.15;0.80;;;22.20;59.20;;;;;;5031272;28;20026;-70
2022/02/12 06:20:44;;;;;;;1.65;0.80;;;22.20;59.30;;;;;;5031348;28;20052;-70
2022/02/12 06:23:10;;;;;;;1.65;0.82;;;22.20;59.30;;;;;;5013978;28;20029;-70
2022/02/12 06:25:35;;;;;;;1.17;0.80;;;22.10;59.20;;;;;;5031115;28;20487;-70
2022/02/12 06:28:01;;;;;;;0.63;0.63;;;22.10;59.30;;;;;;5013673;28;20075;-70
2022/02/12 06:30:27;;;;;;;2.55;0.80;;;22.10;59.30;;;;;;5032773;28;20017;-70
2022/02/12 06:32:52;;;;;;;0.98;0.90;;;22.00;59.30;;;;;;5034641;28;20476;-70
2022/02/12 06:35:19;;;;;;;0.80;0.60;;;22.00;59.40;;;;;;5034936;28;20439;-70
2022/02/12 06:37:44;;;;;;;2.05;1.00;;;22.00;59.40;;;;;;5016758;28;20026;-70
2022/02/12 06:40:10;;;;;;;0.85;0.70;;;21.90;59.30;;;;;;5034899;28;20032;-70
2022/02/12 06:42:36;;;;;;;0.98;0.80;;;21.90;59.30;;;;;;5034999;28;20104;-70
2022/02/12 06:45:02;;;;;;;0.98;0.80;;;21.90;59.40;;;;;;5017304;28;20444;-70
2022/02/12 06:47:28;;;;;;;0.88;0.88;;;21.90;59.40;;;;;;5034658;28;20029;-70
2022/02/12 06:49:54;;;;;;;2.35;0.80;;;21.80;59.40;;;;;;5034788;28;20075;-70
2022/02/12 06:52:19;;;;;;;0.90;0.60;;;21.80;59.40;;;;;;5034493;28;20422;-70
2022/02/12 06:54:45;;;;;;;0.68;0.68;;;21.80;59.50;;;;;;5034783;28;20030;-69
2022/02/12 06:57:11;;;;;;;1.55;0.65;;;21.70;59.50;;;;;;5034744;28;20032;-70
2022/02/12 06:59:36;;;;;;;1.45;0.73;;;21.70;59.50;;;;;;5034238;28;20053;-70
2022/02/12 07:02:03;;;;;;;1.27;0.90;;;21.70;59.50;;;;;;5034572;28;20021;-70
2022/02/12 07:04:31;;;;;;;1.23;0.75;;;21.70;59.60;;;;;;5034519;28;20049;-70
2022/02/12 07:06:57;;;;;;;1.17;0.68;;;21.60;59.50;;;;;;5034644;28;20511;-70
2022/02/12 07:09:23;;;;;;;0.70;0.70;;;21.60;59.50;;;;;;5034554;28;20062;-70
2022/02/12 07:11:49;;;;;;;4.10;1.05;;;21.60;59.60;;;;;;5016724;28;20061;-70
2022/02/12 07:14:14;;;;;;;0.75;0.60;;;21.60;59.60;;;;;;5034167;28;20048;-70
2022/02/12 07:16:40;;;;;;;3.92;0.80;;;21.60;59.60;;;;;;5034125;28;20045;-70
2022/02/12 07:19:05;;;;;;;1.27;0.70;;;21.50;59.60;;;;;;5016676;28;20026;-70
2022/02/12 07:21:33;;;;;;;1.60;0.80;;;21.50;59.60;;;;;;5034081;28;20030;-70
2022/02/12 07:23:58;;;;;;;0.50;0.50;;;21.50;59.60;;;;;;5034404;28;20024;-70
2022/02/12 07:26:24;;;;;;;0.88;0.77;;;21.40;59.60;;;;;;5034107;28;20021;-70
2022/02/12 07:28:50;;;;;;;2.72;0.93;;;21.40;59.60;;;;;;5033635;28;20480;-70
2022/02/12 07:31:16;;;;;;;1.27;0.80;;;21.40;59.60;;;;;;5034046;28;20487;-69
2022/02/12 07:33:42;;;;;;;1.27;0.70;;;21.40;59.60;;;;;;5034036;28;20021;-69
2022/02/12 07:36:08;;;;;;;1.35;0.70;;;21.30;59.60;;;;;;5034139;28;20033;-70
2022/02/12 07:38:34;;;;;;;0.70;0.70;;;21.30;59.60;;;;;;5016450;28;20017;-70
2022/02/12 07:41:00;;;;;;;0.55;0.55;;;21.30;59.60;;;;;;5015716;28;20490;-70
2022/02/12 07:43:26;;;;;;;0.73;0.70;;;21.30;59.70;;;;;;5015102;28;20104;-70
2022/02/12 07:45:51;;;;;;;0.82;0.60;;;21.20;59.60;;;;;;5015493;28;20117;-69
2022/02/12 07:48:17;;;;;;;1.25;0.70;;;21.20;59.70;;;;;;5016312;28;20021;-69
2022/02/12 07:50:43;;;;;;;1.27;0.70;;;21.20;59.80;;;;;;5033870;28;20030;-70
2022/02/12 07:53:09;;;;;;;0.65;0.60;;;21.20;59.80;;;;;;5015612;28;20100;-69
2022/02/12 07:55:35;;;;;;;1.02;0.80;;;21.20;59.80;;;;;;5033030;28;20021;-70
2022/02/12 07:58:00;;;;;;;0.65;0.65;;;21.10;59.80;;;;;;5033006;28;20017;-69
2022/02/12 08:00:26;;;;;;;0.82;0.70;;;21.10;59.80;;;;;;5033442;28;20391;-69
2022/02/12 08:02:54;;;;;;;1.00;0.65;;;21.10;59.80;;;;;;5033249;28;20383;-69
2022/02/12 08:05:20;;;;;;;3.13;0.55;;;21.10;59.80;;;;;;5033327;28;20104;-69
2022/02/12 08:07:46;;;;;;;0.75;0.75;;;21.00;59.80;;;;;;5015074;28;20021;-70
2022/02/12 08:12:57;;;;;;;1.02;0.60;;;21.00;59.80;;;;;;5017934;28;20037;-69
2022/02/12 08:15:23;;;;;;;0.80;0.80;;;21.00;59.90;;;;;;5032720;28;20045;-69
2022/02/12 08:17:48;;;;;;;1.08;0.63;;;21.00;59.90;;;;;;5032571;28;20025;-69
2022/02/12 08:20:14;;;;;;;0.60;0.60;;;20.90;59.90;;;;;;5032993;28;20021;-69
2022/02/12 08:22:40;;;;;;;1.17;0.60;;;20.90;59.90;;;;;;5015292;28;20373;-69
2022/02/12 08:25:06;;;;;;;0.77;0.60;;;20.90;59.90;;;;;;5032985;28;20033;-70
2022/02/12 08:27:32;;;;;;;1.20;0.80;;;20.80;59.90;;;;;;5014654;28;20466;-70
2022/02/12 08:29:58;;;;;;;1.05;0.70;;;20.90;60.00;;;;;;5015214;28;20104;-69
2022/02/12 08:32:23;;;;;;;1.15;0.80;;;20.80;59.90;;;;;;5032876;28;20032;-69
2022/02/12 08:34:50;;;;;;;0.80;0.70;;;20.80;60.00;;;;;;5015281;28;20052;-69
2022/02/12 08:37:16;;;;;;;1.42;0.60;;;20.80;60.00;;;;;;5032974;28;20021;-70
2022/02/12 08:39:41;;;;;;;1.52;0.82;;;20.80;60.00;;;;;;5032549;28;20072;-70
2022/02/12 08:42:07;;;;;;;0.60;0.60;;;20.70;60.00;;;;;;5032256;28;20031;-69
2022/02/12 08:44:33;;;;;;;1.65;0.70;;;20.70;60.00;;;;;;5015165;28;20025;-69
2022/02/12 08:46:59;;;;;;;1.95;0.60;;;20.70;60.00;;;;;;5032690;28;20025;-69
2022/02/12 08:49:25;;;;;;;0.80;0.70;;;20.70;60.10;;;;;;5032548;28;20071;-69
2022/02/12 08:51:51;;;;;;;1.00;0.70;;;20.70;60.10;;;;;;5014778;28;20464;-69
2022/02/12 08:54:16;;;;;;;0.70;0.70;;;20.70;60.10;;;;;;5032520;28;20060;-69
2022/02/12 08:56:44;;;;;;;0.60;0.60;;;20.60;60.10;;;;;;5032241;28;20021;-69
2022/02/12 08:59:10;;;;;;;1.08;0.80;;;20.60;60.10;;;;;;5015114;28;20030;-69
2022/02/12 09:01:37;;;;;;;1.13;0.68;;;20.60;60.20;;;;;;5032578;28;20021;-69
2022/02/12 09:04:04;;;;;;;0.65;0.65;;;20.60;60.20;;;;;;5032265;28;20025;-69
2022/02/12 09:06:29;;;;;;;0.60;0.60;;;20.50;60.20;;;;;;5015120;28;20014;-69
2022/02/12 09:08:58;;;;;;;0.85;0.80;;;20.60;60.30;;;;;;5032208;28;20395;-69
2022/02/12 09:11:23;;;;;;;1.27;0.90;;;20.50;60.20;;;;;;5014754;28;20022;-70
2022/02/12 09:13:50;;;;;;;1.15;0.60;;;20.50;60.20;;;;;;5014559;28;20024;-70
2022/02/12 09:16:17;;;;;;;0.70;0.70;;;20.50;60.20;;;;;;4998187;28;20075;-70
2022/02/12 09:18:42;;;;;;;2.00;0.95;;;20.50;60.20;;;;;;5032290;28;20076;-69
2022/02/12 09:21:08;;;;;;;2.90;0.80;;;20.50;60.30;;;;;;5032289;28;20037;-69
2022/02/12 09:23:33;;;;;;;2.25;0.88;;;20.50;60.30;;;;;;5014599;28;20044;-69
2022/02/12 09:25:59;;;;;;;2.17;0.80;;;20.40;60.30;;;;;;5029226;28;20021;-73
2022/02/12 09:28:25;;;;;;;6.97;1.05;;;20.40;60.30;;;;;;5009010;28;20025;-73
2022/02/12 09:30:51;;;;;;;2.10;0.90;;;20.40;60.40;;;;;;5013612;28;20034;-73
2022/02/12 09:33:16;;;;;;;1.00;0.80;;;20.40;60.50;;;;;;5032312;28;20018;-73
2022/02/12 09:35:42;;;;;;;3.08;1.20;;;20.40;60.70;;;;;;5002531;28;20535;-73
2022/02/12 09:38:07;;;;;;;2.45;0.90;;;20.40;60.70;;;;;;5014285;28;20456;-74
2022/02/12 09:40:33;;;;;;;2.45;0.90;;;20.40;60.60;;;;;;4997869;28;20024;-73
2022/02/12 09:42:59;;;;;;;1.50;1.00;;;20.40;60.70;;;;;;5030917;28;20120;-73
2022/02/12 09:45:30;;;;;;;1.67;1.02;;;20.40;60.60;;;;;;4997744;28;20025;-73
2022/02/12 09:47:55;;;;;;;2.78;1.10;;;20.40;60.60;;;;;;5013397;28;20021;-73
2022/02/12 09:50:22;;;;;;;2.03;0.98;;;20.40;60.60;;;;;;5014194;28;20029;-73
2022/02/12 09:52:50;;;;;;;1.67;1.00;;;20.40;60.60;;;;;;5007258;28;20029;-73
2022/02/12 09:55:16;;;;;;;5.05;1.00;;;20.50;60.70;;;;;;5014066;28;20024;-73
2022/02/12 09:57:41;;;;;;;1.98;0.98;;;20.40;60.70;;;;;;5013894;28;20047;-74
2022/02/12 10:00:09;;;;;;;3.60;0.85;;;20.50;60.70;;;;;;5013285;28;20108;-73
2022/02/12 10:02:35;;;;;;;1.98;1.20;;;20.50;60.70;;;;;;5014591;28;20037;-73
2022/02/12 10:05:18;;;;;;;2.45;1.10;;;20.50;60.70;;;;;;5031761;28;20018;-74
2022/02/12 10:07:44;;;;;;;2.25;0.80;;;20.50;60.60;;;;;;5017929;28;20056;-74
2022/02/12 10:10:16;;;;;;;1.73;0.90;;;20.50;60.70;;;;;;5016935;28;20079;-74
2022/02/12 10:12:42;;;;;;;1.45;1.00;;;20.50;60.70;;;;;;5017591;28;20018;-74
2022/02/12 10:15:29;;;;;;;1.75;0.82;;;20.50;60.70;;;;;;5016938;28;20048;-73
2022/02/12 10:17:59;;;;;;;1.33;1.10;;;20.60;60.60;;;;;;5034963;28;20087;-74
2022/02/12 10:20:30;;;;;;;1.23;0.85;;;20.50;60.80;;;;;;5017589;28;20119;-74
2022/02/12 10:23:18;;;;;;;1.48;1.00;;;20.50;60.70;;;;;;5016998;28;20052;-73
2022/02/12 10:26:07;;;;;;;1.48;0.90;;;20.60;60.60;;;;;;5017176;28;20077;-73
2022/02/12 10:28:42;;;;;;;2.25;0.90;;;20.60;60.80;;;;;;5034332;28;20033;-73
2022/02/12 10:31:08;;;;;;;2.92;1.20;;;20.60;60.80;;;;;;5034237;28;20057;-73
2022/02/12 10:33:48;;;;;;;0.82;0.77;;;20.60;60.80;;;;;;5035001;28;20026;-74
2022/02/12 10:36:15;;;;;;;1.00;0.90;;;20.60;60.60;;;;;;5033926;28;20017;-74
2022/02/12 10:38:48;;;;;;;1.85;0.90;;;20.60;60.70;;;;;;5034698;28;20071;-74
2022/02/12 10:41:15;;;;;;;1.05;0.90;;;20.60;60.70;;;;;;5034130;28;20028;-74
2022/02/12 10:43:42;;;;;;;1.38;0.90;;;20.60;60.70;;;;;;5016888;28;20033;-74
2022/02/12 10:46:07;;;;;;;2.88;1.10;;;20.70;60.70;;;;;;5016684;28;20486;-74
2022/02/12 10:48:38;;;;;;;0.90;0.90;;;20.70;60.70;;;;;;5000513;28;20036;-74
2022/02/12 10:51:06;;;;;;;0.80;0.75;;;20.60;60.60;;;;;;5017461;28;20504;-71
2022/02/12 10:53:32;;;;;;;0.80;0.77;;;20.70;60.50;;;;;;5016651;28;20108;-71
2022/02/12 10:55:59;;;;;;;2.00;0.90;;;20.60;60.60;;;;;;5016180;28;20037;-71
2022/02/12 10:58:25;;;;;;;0.95;0.80;;;20.70;60.60;;;;;;5008968;28;20022;-71
2022/02/12 11:00:51;;;;;;;1.63;0.63;;;20.60;60.60;;;;;;5034592;28;20021;-70
2022/02/12 11:03:18;;;;;;;2.45;1.00;;;20.60;60.50;;;;;;5034229;28;20467;-71
2022/02/12 11:05:48;;;;;;;1.20;0.80;;;20.70;60.60;;;;;;5016742;28;20032;-72
2022/02/12 11:08:14;;;;;;;2.50;0.95;;;20.70;60.60;;;;;;5016132;28;20071;-71
2022/02/12 11:10:40;;;;;;;1.23;0.82;;;20.70;60.50;;;;;;5000263;28;20096;-71
2022/02/12 11:13:06;;;;;;;1.55;0.95;;;20.70;60.50;;;;;;5016266;28;20021;-72
2022/02/12 11:15:32;;;;;;;0.90;0.88;;;20.70;60.50;;;;;;5016349;28;20515;-72
2022/02/12 11:17:59;;;;;;;0.80;0.80;;;20.70;60.50;;;;;;5016096;28;20022;-72
2022/02/12 11:20:24;;;;;;;1.05;0.90;;;20.70;60.50;;;;;;5015732;28;20022;-72
2022/02/12 11:22:55;;;;;;;0.85;0.85;;;20.70;60.50;;;;;;5007765;28;20031;-72
2022/02/12 11:25:34;;;;;;;1.00;0.90;;;20.70;60.40;;;;;;5008259;28;20488;-72
2022/02/12 11:28:11;;;;;;;1.13;0.90;;;20.80;60.30;;;;;;5034017;28;20076;-72
2022/02/12 11:30:39;;;;;;;1.85;1.08;;;20.80;61.50;;;;;;5004627;28;20028;-72
2022/02/12 11:33:22;;;;;;;1.70;1.05;;;20.70;60.40;;;;;;4997023;28;20029;-71
2022/02/12 11:36:12;;;;;;;1.52;1.05;;;20.80;60.30;;;;;;5010086;28;20045;-72
2022/02/12 11:38:39;;;;;;;3.05;0.93;;;20.80;60.20;;;;;;5026488;28;20049;-72
2022/02/12 11:41:24;;;;;;;1.08;0.98;;;20.80;60.40;;;;;;5016345;28;20102;-72
2022/02/12 11:43:51;;;;;;;1.88;0.98;;;20.80;60.10;;;;;;5016236;28;20096;-73
2022/02/12 11:46:55;;;;;;;1.48;0.82;;;20.80;60.40;;;;;;5015788;28;20025;-73
2022/02/12 11:49:33;;;;;;;1.42;0.85;;;20.80;60.10;;;;;;5022200;28;20041;-72
2022/02/12 11:52:04;;;;;;;1.38;1.02;;;20.80;60.40;;;;;;5016675;28;20018;-72
2022/02/12 11:54:47;;;;;;;1.23;0.90;;;20.80;60.40;;;;;;5016141;28;20120;-72
2022/02/12 11:57:17;;;;;;;1.83;0.80;;;20.80;60.10;;;;;;5015723;28;20083;-72
2022/02/12 11:59:44;;;;;;;1.55;0.88;;;20.80;60.40;;;;;;5016264;28;20076;-72
2022/02/12 12:02:39;;;;;;;3.97;0.95;;;20.80;60.30;;;;;;5015872;28;20029;-72
2022/02/12 12:05:20;;;;;;;0.85;0.70;;;20.80;60.10;;;;;;5014603;28;20031;-72
2022/02/12 12:08:02;;;;;;;4.25;1.90;;;20.80;60.00;;;;;;5015529;28;20029;-71
2022/02/12 12:10:28;;;;;;;3.73;1.97;;;20.80;58.50;;;;;;5032398;28;20529;-72
2022/02/12 12:13:22;;;;;;;4.60;2.92;;;20.60;57.70;;;;;;5032740;28;20261;-72
2022/02/12 12:15:58;;;;;;;4.32;2.70;;;20.40;56.00;;;;;;4964488;28;20234;-74
2022/02/12 12:18:27;;;;;;;5.93;3.17;;;20.20;56.50;;;;;;4970946;28;20370;-71
2022/02/12 12:20:52;;;;;;;6.25;3.20;;;20.00;56.30;;;;;;4951697;29;20038;-72
2022/02/12 12:23:20;;;;;;;7.45;3.92;;;19.90;56.30;;;;;;4952617;28;20453;-71
2022/02/12 12:26:02;;;;;;;4.82;3.03;;;19.80;56.20;;;;;;4948246;28;20097;-71
2022/02/12 12:28:31;;;;;;;7.70;3.63;;;19.70;55.70;;;;;;4952737;28;20035;-71
2022/02/12 12:31:03;;;;;;;8.25;4.50;;;19.50;55.70;;;;;;4971208;28;20030;-71
2022/02/12 12:33:29;;;;;;;5.10;3.75;;;19.40;54.60;;;;;;4954550;28;20039;-71
2022/02/12 12:35:55;;;;;;;7.85;4.10;;;19.30;55.10;;;;;;4948558;29;20039;-71
2022/02/12 12:38:34;;;;;;;6.75;4.00;;;19.20;55.00;;;;;;4968173;28;20526;-71
2022/02/12 12:40:59;;;;;;;7.55;4.18;;;19.10;54.50;;;;;;4951246;28;20026;-71
2022/02/12 12:43:28;;;;;;;6.38;3.92;;;19.00;54.20;;;;;;4954726;28;20042;-72
2022/02/12 12:45:53;;;;;;;7.45;4.00;;;18.90;54.50;;;;;;4971273;28;20034;-71
2022/02/12 12:48:19;;;;;;;7.13;3.90;;;18.90;54.30;;;;;;4951584;29;20032;-71
2022/02/12 12:50:45;;;;;;;7.85;3.58;;;18.80;54.20;;;;;;4938640;28;20039;-71
2022/02/12 12:53:12;;;;;;;5.80;3.22;;;18.70;54.20;;;;;;5017519;28;20044;-71
2022/02/12 12:55:38;;;;;;;7.32;3.53;;;18.60;54.20;;;;;;5012720;28;20156;-71